ADDS METAR Data INFO
IDs: Format: Raw Decoded Include TAF

Data at: 1350 UTC 21 Nov 2017

KCRP 211259Z 00000KT 10SM SCT024 BKN032 BKN250 15/14 A2991 RMK AO2 T01500144
KCRP 211251Z 35004KT 10SM BKN024 BKN031 BKN250 15/14 A2992 RMK AO2 SLP132 T01500139
KCRP 211241Z 34005KT 10SM BKN024 BKN031 12/12 A2992 RMK AO2 T01220122
KCRP 211151Z 33003KT 10SM FEW025 FEW036 SCT250 13/13 A2990 RMK AO2 SLP125 T01330128 10172 20122 56007
KCRP 211051Z 32003KT 10SM SCT025 BKN032 BKN250 13/11 A2991 RMK AO2 SLP127 T01330111
KCRP 210951Z 00000KT 10SM FEW027 FEW055 BKN250 14/13 A2990 RMK AO2 SLP126 T01390133
KCRP 210851Z 00000KT 10SM FEW030 FEW055 BKN250 14/12 A2992 RMK AO2 SLP132 T01440122 58024
KCRP 210751Z 00000KT 10SM FEW030 FEW055 BKN250 15/12 A2994 RMK AO2 SLP139 T01500122
KCRP 210651Z 00000KT 10SM FEW030 BKN055 17/13 A2997 RMK AO2 SLP149 T01670128
KCRP 210551Z 00000KT 10SM FEW030 FEW045 OVC055 17/13 A2999 RMK AO2 SLP155 T01720128 10189 20172 402000078 58012
KCRP 210451Z 17003KT 10SM FEW032 FEW048 OVC060 17/13 A3000 RMK AO2 SLP160 T01720128
KCRP 210351Z 00000KT 10SM FEW035 FEW047 OVC060 18/14 A3002 RMK AO2 SLP164 T01780139
KCRP 210251Z 10004KT 10SM FEW035 BKN050 OVC060 18/14 A3003 RMK AO2 SLP167 T01830139 50000
KCRP 210151Z COR 06004KT 10SM FEW025 SCT035 OVC050 18/14 A3003 RMK AO2 SLP168 T01830139
KCRP 210051Z 04005KT 10SM SCT035 OVC047 18/14 A3004 RMK AO2 SLP171 T01830139
KCRP 202351Z 09006KT 10SM FEW035 BKN047 OVC055 19/13 A3003 RMK AO2 SLP167 T01890133 10200 20189 56009
KCRP 202251Z 08008KT 10SM FEW041 BKN047 OVC055 19/12 A3003 RMK AO2 SLP170 T01890122
KCRP 202151Z 09008KT 10SM BKN044 OVC055 19/12 A3004 RMK AO2 SLP172 T01940117
KCRP 202051Z 10007KT 10SM OVC046 19/12 A3005 RMK AO2 SLP177 T01940117 56037
KCRP 201951Z 07006KT 10SM FEW030 OVC050 20/11 A3008 RMK AO2 SLP187 T02000106
KCRP 201851Z 09010KT 10SM FEW030 OVC055 20/11 A3012 RMK AO2 SLP199 T02000106
KCRP 201751Z 06008KT 10SM FEW027 OVC055 19/09 A3016 RMK AO2 SLP214 T01940094 10200 20078 58009
KCRP 201651Z 05012KT 10SM FEW032 BKN060 BKN130 BKN250 19/09 A3017 RMK AO2 SLP218 CB DSNT SW MOV E T01890094
KCRP 201551Z 05010KT 10SM FEW033 FEW045 FEW130 SCT200 BKN250 17/08 A3018 RMK AO2 SLP221 CB DSNT NE MOV E T01670083
KCRP 201451Z 04007KT 10SM FEW028 FEW045 FEW100 SCT130 BKN180 BKN250 14/08 A3019 RMK AO2 LTG DSNT SE SLP223 CB DSNT N E-SE S MOV E TCU DSNT NE T01440078 51007
KCRP 201351Z 04005KT 10SM FEW030 FEW045CB FEW100 SCT140 BKN190 BKN250 13/07 A3019 RMK AO2 TSB28E51 SLP223 TS DSIPT CB S MOV E VCSH S T01280067
KCRP 201328Z 05005KT 10SM TS FEW050CB SCT160 BKN200 BKN250 12/07 A3018 RMK AO2 LTG DSNT S AND SW TSB28 OCNL LTGIC VC S-SW TS VC S-SW MOV E VCSH S-SW T01170067
KCRP 201251Z 36005KT 10SM BKN050 BKN160 BKN250 10/06 A3019 RMK AO2 SLP222 T01000056
KCRP 201151Z 34005KT 10SM FEW250 08/02 A3017 RMK AO2 SLP216 T00830022 10106 20078 55002
KCRP 201051Z 32005KT 10SM FEW250 08/02 A3017 RMK AO2 SLP215 T00780017
KCRP 200951Z 01005KT 10SM BKN250 09/05 A3017 RMK AO2 SLP216 T00940050
KCRP 200851Z 33005KT 10SM OVC250 09/02 A3018 RMK AO2 SLP218 T00940017 58014
KCRP 200751Z 33005KT 10SM OVC250 10/01 A3020 RMK AO2 SLP225 T01000011
KCRP 200651Z 32004KT 10SM BKN250 09/01 A3020 RMK AO2 SLP227 T00890011
KCRP 200551Z 26003KT 10SM OVC250 09/00 A3022 RMK AO2 SLP233 T00940000 10156 20094 402060094 58006
KCRP 200451Z 20004KT 10SM OVC250 10/00 A3023 RMK AO2 SLP238 T01000000
KCRP 200351Z 00000KT 10SM FEW200 BKN250 13/01 A3025 RMK AO2 SLP243 T01330006
KCRP 200251Z 04003KT 10SM BKN200 OVC250 14/01 A3024 RMK AO2 SLP239 T01440011 52007
KCRP 200151Z 05007KT 10SM BKN200 BKN250 14/02 A3023 RMK AO2 SLP236 T01390022